KTUP/TUP METAR and TAF weather

Enter ICAO airport designator
Station Type Date Time Source
KTUP METAR 2020/07/11 15:53 UTC NOAA

KTUP 111553Z VRB03KT 10SM CLR 32/19 A3004 RMK AO2 SLP166 T03220189 $


Station Type Date Time Source
KTUP Decoded METAR 2020/07/11 15:53 UTC NOAA

TUPELO REGIONAL AIRPORT, MS, United States (KTUP) 34-16N 88-46W 105M
Jul 11, 2020 - 11:53 AM EDT / 2020.07.11 1553 UTC
Wind: Variable at 3 MPH (3 KT):0
Visibility: 10 mile(s):0
Sky conditions: clear
Temperature: 90.0 F (32.2 C)
Dew Point: 66.0 F (18.9 C)
Relative Humidity: 45%
Pressure (altimeter): 30.04 in. Hg (1017 hPa)
ob: KTUP 111553Z VRB03KT 10SM CLR 32/19 A3004 RMK AO2 SLP166 T03220189
cycle: 16

Station Type Date Time Source
KTUP TAF 2020/07/11 12:24 UTC NOAA

TAF KTUP 111123Z 1112/1212 28004KT P6SM FEW250
FM112100 28005KT P6SM FEW070 FEW250
FM121000 00000KT P6SM VCTS FEW050CB BKN100

Example: see airport list